首页
METAR-TAF:

METAR-TAF

机场 :

廊曼国际机场

曼谷, 泰国

纬度: 13-54-45N, 经度: 100-36-24E, 海拔: 4米

当前天气观测

该预报发布于21分钟前的20:30 UTC
风速6节,风向,在南转南东西南之间变化
温度 28°C
湿度 89%
气压 1006 hPa
能见度10公里或以上
少量云层高于2000英尺

METAR: VTBD 192030Z 19006KT 160V220 9999 FEW020 28/26 Q1006 NOSIG

时间: 03:51 (20:51 UTC)

预报

该预报发布于3小时和51分钟前的17:00 UTC
预报有效从19日的 18点(UTC)到 20日的 24点(UTC)
风速8节,风向
能见度10公里或以上
少量云层高于2000英尺
短暂存在
从 20日的 08点(UTC)到 20日的 13点(UTC)
风速10节,风向西转西南,有时为20节阵风
能見度: 5000
少量云层高于1800英尺, 积雨云.
散云层高于3500英尺
多云层高于10000英尺
雷暴, 雨

TAF: VTBD 191700Z 1918/2024 19008KT 9999 FEW020 TEMPO 2008/2013 24010G20KT 5000 TSRA FEW018CB SCT035 BKN100

超过4000个机场的气象观测和天气预报(METAR&TAF报告)。

可查询的气象台以黄色和红色小点在地图上表示。

将鼠标移到小点上方,可查看气象台名称。

然后点击查看天气观测和预报。

如需切换地图:点击带黑十字的绿色按钮放大地图;点击带横线的绿色按钮缩小地图;或者点击绿色箭头查看邻近地区的地图。


METAR-TAF: